createdAt,value
2022-07-25T00:00:30.114Z,93796.72
2022-07-25T00:01:26.946Z,93807.94
2022-07-25T00:02:27.370Z,93797.69
2022-07-25T00:03:24.066Z,93812.69
2022-07-25T00:04:20.785Z,93802.72
2022-07-25T00:05:19.039Z,93807.84
2022-07-25T00:06:17.857Z,93809.59
2022-07-25T00:07:14.708Z,93802.31
2022-07-25T00:08:11.343Z,93808.53
2022-07-25T00:09:08.240Z,93794.91
2022-07-25T00:10:05.324Z,93795.88
2022-07-25T00:11:02.035Z,93796.47
2022-07-25T00:11:58.706Z,93778.31
2022-07-25T00:12:55.346Z,93800.88
2022-07-25T00:13:52.141Z,93791.97
2022-07-25T00:14:48.813Z,93790.91
2022-07-25T00:15:45.457Z,93787.78
2022-07-25T00:16:42.096Z,93795.13
2022-07-25T00:17:40.511Z,93796.81
2022-07-25T00:18:37.220Z,93776.00
2022-07-25T00:19:33.926Z,93795.44
2022-07-25T00:20:30.568Z,93792.13
2022-07-25T00:21:27.236Z,93797.31
2022-07-25T00:22:23.839Z,93791.84
2022-07-25T00:23:20.509Z,93795.88
2022-07-25T00:24:17.193Z,93796.34
2022-07-25T00:25:14.111Z,93796.09
2022-07-25T00:26:10.715Z,93791.81
2022-07-25T00:27:07.359Z,93793.94
2022-07-25T00:28:04.249Z,93795.88
2022-07-25T00:29:01.602Z,93795.97
2022-07-25T00:29:58.439Z,93790.50
2022-07-25T00:30:55.167Z,93789.09
2022-07-25T00:31:52.373Z,93788.06
2022-07-25T00:32:48.995Z,93786.72
2022-07-25T00:33:45.638Z,93786.06
2022-07-25T00:34:42.995Z,93783.84
2022-07-25T00:35:39.791Z,93781.78
2022-07-25T00:36:39.181Z,93764.78
2022-07-25T00:37:35.884Z,93776.31
2022-07-25T00:38:32.498Z,93779.84
2022-07-25T00:39:29.155Z,93767.28
2022-07-25T00:40:25.817Z,93767.59
2022-07-25T00:41:22.564Z,93771.00
2022-07-25T00:42:19.192Z,93778.81
2022-07-25T00:43:15.854Z,93776.00
2022-07-25T00:44:26.303Z,93773.72
2022-07-25T00:45:23.033Z,93767.94
2022-07-25T00:46:19.669Z,93770.81
2022-07-25T00:47:17.307Z,93744.22
2022-07-25T00:48:13.976Z,93769.66
2022-07-25T00:49:10.617Z,93772.47
2022-07-25T00:50:07.896Z,93768.50
2022-07-25T00:51:04.924Z,93769.59
2022-07-25T00:52:01.838Z,93738.34
2022-07-25T00:52:58.591Z,93764.38
2022-07-25T00:53:57.479Z,93767.47
2022-07-25T00:54:54.601Z,93769.19
2022-07-25T00:55:51.762Z,93733.19
2022-07-25T00:56:49.478Z,93755.13
2022-07-25T00:57:46.150Z,93770.41
2022-07-25T00:58:45.576Z,93776.78
2022-07-25T00:59:42.527Z,93778.59
2022-07-25T01:00:39.345Z,93772.69
2022-07-25T01:01:37.634Z,93781.78
2022-07-25T01:02:34.473Z,93773.81
2022-07-25T01:03:31.270Z,93765.16
2022-07-25T01:04:29.003Z,93771.34
2022-07-25T01:05:25.710Z,93782.84
2022-07-25T01:06:24.760Z,93778.38
2022-07-25T01:07:21.902Z,93773.97
2022-07-25T01:08:19.877Z,93776.69
2022-07-25T01:09:16.775Z,93776.72
2022-07-25T01:10:13.418Z,93779.06
2022-07-25T01:11:10.506Z,93779.81
2022-07-25T01:12:07.443Z,93775.47
2022-07-25T01:13:04.330Z,93778.00
2022-07-25T01:14:01.003Z,93780.72
2022-07-25T01:14:58.318Z,93774.38
2022-07-25T01:15:55.229Z,93780.09
2022-07-25T01:16:52.172Z,93771.06
2022-07-25T01:17:49.506Z,93771.91
2022-07-25T01:18:46.193Z,93771.06
2022-07-25T01:19:43.370Z,93737.59
2022-07-25T01:20:40.051Z,93771.63
2022-07-25T01:21:40.807Z,93770.50
2022-07-25T01:22:37.409Z,93779.03
2022-07-25T01:23:34.248Z,93772.19
2022-07-25T01:24:30.890Z,93775.28
2022-07-25T01:25:28.045Z,93774.75
2022-07-25T01:26:24.725Z,93768.88
2022-07-25T01:27:21.325Z,93769.84
2022-07-25T01:28:18.402Z,93773.16
2022-07-25T01:29:15.020Z,93775.38
2022-07-25T01:30:14.615Z,93772.47
2022-07-25T01:31:11.293Z,93771.13
2022-07-25T01:32:07.989Z,93751.63
2022-07-25T01:33:06.988Z,93770.66
2022-07-25T01:34:04.326Z,93766.88
2022-07-25T01:35:01.734Z,93769.59
2022-07-25T01:35:58.419Z,93772.19
2022-07-25T01:36:55.041Z,93750.66
2022-07-25T01:37:51.865Z,93768.56
2022-07-25T01:38:48.579Z,93766.03
2022-07-25T01:39:45.178Z,93769.94
2022-07-25T01:40:42.780Z,93765.97
2022-07-25T01:41:39.529Z,93763.44
2022-07-25T01:42:36.154Z,93768.34
2022-07-25T01:43:33.054Z,93761.41
2022-07-25T01:44:29.663Z,93772.03
2022-07-25T01:45:26.385Z,93772.25
2022-07-25T01:46:23.074Z,93775.09
2022-07-25T01:47:19.787Z,93769.25
2022-07-25T01:48:16.481Z,93765.19
2022-07-25T01:49:13.852Z,93767.22
2022-07-25T01:50:11.045Z,93763.44
2022-07-25T01:51:10.470Z,93761.56
2022-07-25T01:52:07.714Z,93759.66
2022-07-25T01:53:04.711Z,93764.22
2022-07-25T01:54:01.289Z,93763.13
2022-07-25T01:55:00.101Z,93760.28
2022-07-25T01:55:57.519Z,93753.69
2022-07-25T01:56:54.208Z,93762.19
2022-07-25T01:57:50.946Z,93754.47
2022-07-25T01:58:48.835Z,93754.13
2022-07-25T01:59:45.466Z,93752.44
2022-07-25T02:00:42.132Z,93753.31
2022-07-25T02:01:39.017Z,93751.13
2022-07-25T02:02:35.736Z,93759.63
2022-07-25T02:03:32.473Z,93743.34
2022-07-25T02:04:29.370Z,93768.13
2022-07-25T02:05:26.134Z,93770.00
2022-07-25T02:06:22.798Z,93769.22
2022-07-25T02:07:19.605Z,93766.47
2022-07-25T02:08:16.306Z,93772.53
2022-07-25T02:09:13.907Z,93771.19
2022-07-25T02:10:10.600Z,93766.19
2022-07-25T02:11:07.295Z,93767.53
2022-07-25T02:12:04.347Z,93766.25
2022-07-25T02:13:01.976Z,93767.78
2022-07-25T02:13:58.606Z,93769.75
2022-07-25T02:14:55.234Z,93753.09
2022-07-25T02:15:52.038Z,93767.91
2022-07-25T02:16:49.038Z,93756.00
2022-07-25T02:17:45.694Z,93755.94
2022-07-25T02:18:42.338Z,93766.03
2022-07-25T02:19:39.205Z,93769.63
2022-07-25T02:20:36.276Z,93766.03
2022-07-25T02:21:32.929Z,93765.28
2022-07-25T02:22:29.605Z,93764.91
2022-07-25T02:23:26.341Z,93758.66
2022-07-25T02:24:22.991Z,93767.94
2022-07-25T02:25:19.684Z,93762.09
2022-07-25T02:26:16.335Z,93767.88
2022-07-25T02:27:12.990Z,93763.78
2022-07-25T02:28:10.607Z,93765.59
2022-07-25T02:29:07.561Z,93748.28
2022-07-25T02:30:05.521Z,93771.28
2022-07-25T02:31:02.256Z,93771.63
2022-07-25T02:31:58.983Z,93771.41
2022-07-25T02:32:55.619Z,93773.53
2022-07-25T02:33:52.260Z,93767.63
2022-07-25T02:34:48.909Z,93750.94
2022-07-25T02:35:45.764Z,93768.19
2022-07-25T02:36:42.462Z,93770.97
2022-07-25T02:37:39.129Z,93754.94
2022-07-25T02:38:35.771Z,93775.06
2022-07-25T02:39:32.367Z,93769.69
2022-07-25T02:40:29.133Z,93777.84
2022-07-25T02:41:25.892Z,93761.72
2022-07-25T02:42:22.635Z,93776.53
2022-07-25T02:43:20.178Z,93768.72
2022-07-25T02:44:16.821Z,93774.44
2022-07-25T02:45:14.024Z,93780.59
2022-07-25T02:46:10.895Z,93776.06
2022-07-25T02:47:07.593Z,93768.84
2022-07-25T02:48:04.903Z,93779.81
2022-07-25T02:49:01.906Z,93778.50
2022-07-25T02:49:58.605Z,93780.06
2022-07-25T02:50:55.280Z,93779.38
2022-07-25T02:51:52.174Z,93785.13
2022-07-25T02:52:48.815Z,93779.00
2022-07-25T02:53:57.174Z,93773.38
2022-07-25T02:54:55.103Z,93786.34
2022-07-25T02:55:51.741Z,93764.31
2022-07-25T02:56:49.763Z,93786.81
2022-07-25T02:57:46.385Z,93785.53
2022-07-25T02:58:43.057Z,93789.06
2022-07-25T02:59:39.736Z,93795.66
2022-07-25T03:00:37.145Z,93789.31
2022-07-25T03:01:33.898Z,93787.75
2022-07-25T03:02:30.632Z,93784.16
2022-07-25T03:03:27.340Z,93762.13
2022-07-25T03:04:24.753Z,93780.56
2022-07-25T03:05:21.403Z,93786.31
2022-07-25T03:06:18.282Z,93785.38
2022-07-25T03:07:14.965Z,93788.22
2022-07-25T03:08:11.603Z,93788.59
2022-07-25T03:09:08.208Z,93786.03
2022-07-25T03:10:08.629Z,93788.88
2022-07-25T03:11:07.777Z,93788.97
2022-07-25T03:12:04.861Z,93780.69
2022-07-25T03:13:01.492Z,93784.53
2022-07-25T03:13:58.071Z,93781.16
2022-07-25T03:14:54.699Z,93784.28
2022-07-25T03:15:51.526Z,93789.69
2022-07-25T03:16:48.676Z,93786.81
2022-07-25T03:17:45.320Z,93788.50
2022-07-25T03:18:41.908Z,93789.69
2022-07-25T03:19:38.521Z,93790.97
2022-07-25T03:20:35.189Z,93787.59
2022-07-25T03:21:31.830Z,93790.16
2022-07-25T03:22:28.453Z,93783.53
2022-07-25T03:23:27.182Z,93778.59
2022-07-25T03:24:23.850Z,93785.63
2022-07-25T03:25:21.659Z,93786.06
2022-07-25T03:26:18.672Z,93788.78
2022-07-25T03:27:15.432Z,93787.16
2022-07-25T03:28:12.083Z,93797.00
2022-07-25T03:29:08.751Z,93784.47
2022-07-25T03:30:06.045Z,93792.69
2022-07-25T03:31:04.873Z,93787.53
2022-07-25T03:32:01.731Z,93791.41
2022-07-25T03:32:58.452Z,93784.34
2022-07-25T03:33:55.147Z,93763.38
2022-07-25T03:34:51.746Z,93788.38
2022-07-25T03:35:48.527Z,93786.00
2022-07-25T03:36:45.231Z,93785.00
2022-07-25T03:37:42.682Z,93781.00
2022-07-25T03:38:39.562Z,93782.03
2022-07-25T03:39:36.252Z,93779.13
2022-07-25T03:40:32.963Z,93781.06
2022-07-25T03:41:29.785Z,93782.66
2022-07-25T03:42:26.857Z,93776.63
2022-07-25T03:43:23.563Z,93785.41
2022-07-25T03:44:21.262Z,93790.16
2022-07-25T03:45:18.018Z,93770.00
2022-07-25T03:46:14.871Z,93756.22
2022-07-25T03:47:20.604Z,93795.19
2022-07-25T03:48:17.691Z,93761.22
2022-07-25T03:49:14.371Z,93786.00
2022-07-25T03:50:11.524Z,93791.66
2022-07-25T03:51:08.603Z,93785.34
2022-07-25T03:52:05.736Z,93789.31
2022-07-25T03:53:02.335Z,93798.06
2022-07-25T03:54:01.863Z,93788.06
2022-07-25T03:54:58.571Z,93797.69
2022-07-25T03:55:55.188Z,93792.97
2022-07-25T03:56:52.524Z,93781.63
2022-07-25T03:57:49.143Z,93794.31
2022-07-25T03:58:45.754Z,93794.38
2022-07-25T03:59:42.423Z,93781.97
2022-07-25T04:00:39.165Z,93796.97
2022-07-25T04:01:36.099Z,93800.00
2022-07-25T04:02:33.349Z,93794.13
2022-07-25T04:03:30.078Z,93802.44
2022-07-25T04:04:26.703Z,93799.06
2022-07-25T04:05:23.385Z,93799.91
2022-07-25T04:06:20.256Z,93777.16
2022-07-25T04:07:17.079Z,93798.63
2022-07-25T04:08:14.108Z,93802.13
2022-07-25T04:09:11.205Z,93799.34
2022-07-25T04:10:08.476Z,93793.53
2022-07-25T04:11:05.278Z,93794.72
2022-07-25T04:12:01.998Z,93802.22
2022-07-25T04:12:58.626Z,93794.84
2022-07-25T04:13:55.355Z,93761.38
2022-07-25T04:14:52.051Z,93793.84
2022-07-25T04:15:48.803Z,93799.63
2022-07-25T04:16:45.445Z,93793.94
2022-07-25T04:17:42.163Z,93789.97
2022-07-25T04:18:39.191Z,93792.13
2022-07-25T04:19:36.764Z,93782.00
2022-07-25T04:20:33.470Z,93784.19
2022-07-25T04:21:30.280Z,93783.91
2022-07-25T04:22:27.103Z,93785.56
2022-07-25T04:23:23.750Z,93756.03
2022-07-25T04:24:20.464Z,93791.97
2022-07-25T04:25:17.982Z,93788.28
2022-07-25T04:26:14.659Z,93788.34
2022-07-25T04:27:11.279Z,93776.78
2022-07-25T04:28:07.920Z,93779.44
2022-07-25T04:29:04.638Z,93782.38
2022-07-25T04:30:01.310Z,93784.56
2022-07-25T04:30:58.133Z,93781.84
2022-07-25T04:31:55.134Z,93790.63
2022-07-25T04:32:52.508Z,93790.38
2022-07-25T04:33:49.163Z,93782.53
2022-07-25T04:34:45.920Z,93781.31
2022-07-25T04:35:43.328Z,93781.31
2022-07-25T04:36:39.985Z,93783.63
2022-07-25T04:37:37.527Z,93780.16
2022-07-25T04:38:34.503Z,93769.63
2022-07-25T04:39:31.397Z,93773.78
2022-07-25T04:40:28.321Z,93777.59
2022-07-25T04:41:24.947Z,93772.88
2022-07-25T04:42:21.651Z,93781.19
2022-07-25T04:43:20.424Z,93782.13
2022-07-25T04:44:17.135Z,93775.81
2022-07-25T04:45:14.154Z,93771.69
2022-07-25T04:46:19.085Z,93749.78
2022-07-25T04:47:15.727Z,93775.72
2022-07-25T04:48:12.361Z,93778.13
2022-07-25T04:49:09.108Z,93781.31
2022-07-25T04:50:06.283Z,93783.69
2022-07-25T04:51:03.016Z,93775.16
2022-07-25T04:51:59.668Z,93792.72
2022-07-25T04:52:56.447Z,93786.41
2022-07-25T04:53:53.078Z,93785.59
2022-07-25T04:54:49.805Z,93775.13
2022-07-25T04:55:46.496Z,93785.59
2022-07-25T04:56:43.192Z,93785.09
2022-07-25T04:57:39.914Z,93782.47
2022-07-25T04:58:36.766Z,93786.16
2022-07-25T04:59:33.395Z,93779.44
2022-07-25T05:00:31.667Z,93784.88
2022-07-25T05:01:28.476Z,93787.63
2022-07-25T05:02:26.147Z,93735.19
2022-07-25T05:03:23.006Z,93785.19
2022-07-25T05:04:19.591Z,93775.81
2022-07-25T05:05:21.397Z,93783.53
2022-07-25T05:06:19.682Z,93783.91
2022-07-25T05:07:16.345Z,93780.09
2022-07-25T05:08:13.117Z,93787.59
2022-07-25T05:09:10.698Z,93775.97
2022-07-25T05:10:08.252Z,93750.00
2022-07-25T05:11:05.008Z,93758.88
2022-07-25T05:12:01.658Z,93787.84
2022-07-25T05:12:58.510Z,93782.00
2022-07-25T05:13:55.202Z,93789.63
2022-07-25T05:14:51.876Z,93774.66
2022-07-25T05:15:48.585Z,93780.97
2022-07-25T05:16:45.422Z,93784.66
2022-07-25T05:17:43.261Z,93777.78
2022-07-25T05:18:39.908Z,93778.69
2022-07-25T05:19:36.645Z,93782.22
2022-07-25T05:20:33.373Z,93796.81
2022-07-25T05:21:30.129Z,93792.56
2022-07-25T05:22:29.061Z,93771.06
2022-07-25T05:23:25.915Z,93792.31
2022-07-25T05:24:23.134Z,93792.69
2022-07-25T05:25:20.312Z,93787.44
2022-07-25T05:26:16.948Z,93769.53
2022-07-25T05:27:13.618Z,93786.13
2022-07-25T05:28:10.304Z,93788.00
2022-07-25T05:29:06.916Z,93791.91
2022-07-25T05:30:05.988Z,93791.97
2022-07-25T05:31:02.883Z,93785.78
2022-07-25T05:31:59.618Z,93784.75
2022-07-25T05:32:56.341Z,93790.63
2022-07-25T05:33:53.002Z,93766.50
2022-07-25T05:34:49.742Z,93795.56
2022-07-25T05:35:46.339Z,93789.97
2022-07-25T05:36:47.078Z,93791.97
2022-07-25T05:37:43.971Z,93796.19
2022-07-25T05:38:40.604Z,93794.34
2022-07-25T05:39:39.865Z,93788.03
2022-07-25T05:40:36.533Z,93791.56
2022-07-25T05:41:33.210Z,93790.84
2022-07-25T05:42:30.292Z,93791.94
2022-07-25T05:43:26.985Z,93792.69
2022-07-25T05:44:23.806Z,93786.47
2022-07-25T05:45:20.532Z,93787.75
2022-07-25T05:46:17.285Z,93769.44
2022-07-25T05:47:14.100Z,93795.41
2022-07-25T05:48:10.862Z,93784.63
2022-07-25T05:49:07.822Z,93791.97
2022-07-25T05:50:04.838Z,93787.97
2022-07-25T05:51:01.603Z,93778.06
2022-07-25T05:51:58.186Z,93787.72
2022-07-25T05:52:54.813Z,93786.97
2022-07-25T05:53:51.466Z,93788.69
2022-07-25T05:54:48.130Z,93788.19
2022-07-25T05:55:44.842Z,93768.75
2022-07-25T05:56:41.527Z,93785.38
2022-07-25T05:57:38.168Z,93782.97
2022-07-25T05:58:36.882Z,93778.06
2022-07-25T05:59:33.478Z,93780.66
2022-07-25T06:00:31.117Z,93786.53
2022-07-25T06:01:27.794Z,93775.66
2022-07-25T06:02:25.315Z,93782.53
2022-07-25T06:03:22.290Z,93775.69
2022-07-25T06:04:19.851Z,93782.16
2022-07-25T06:05:18.595Z,93780.88
2022-07-25T06:06:15.352Z,93777.50
2022-07-25T06:07:12.034Z,93778.41
2022-07-25T06:08:14.662Z,93781.84
2022-07-25T06:09:11.342Z,93766.69
2022-07-25T06:10:08.512Z,93769.91
2022-07-25T06:11:08.225Z,93778.41
2022-07-25T06:12:06.477Z,93772.72
2022-07-25T06:13:05.137Z,93772.16
2022-07-25T06:14:01.991Z,93727.72
2022-07-25T06:14:58.607Z,93766.53
2022-07-25T06:15:56.902Z,93729.88
2022-07-25T06:16:53.716Z,93753.28
2022-07-25T06:17:50.407Z,93771.88
2022-07-25T06:18:46.998Z,93773.91
2022-07-25T06:19:43.642Z,93774.63
2022-07-25T06:20:40.353Z,93772.97
2022-07-25T06:21:37.078Z,93779.22
2022-07-25T06:22:33.742Z,93776.34
2022-07-25T06:23:31.645Z,93764.03
2022-07-25T06:24:28.375Z,93779.72
2022-07-25T06:25:25.299Z,93780.00
2022-07-25T06:26:22.009Z,93764.13
2022-07-25T06:27:21.109Z,93765.94
2022-07-25T06:28:19.670Z,93782.66
2022-07-25T06:29:16.433Z,93783.03
2022-07-25T06:30:19.725Z,93777.41
2022-07-25T06:31:17.516Z,93780.13
2022-07-25T06:32:14.432Z,93778.50
2022-07-25T06:33:11.939Z,93773.75
2022-07-25T06:34:09.163Z,93774.81
2022-07-25T06:35:06.767Z,93778.41
2022-07-25T06:36:05.826Z,93705.38
2022-07-25T06:37:02.495Z,93770.22
2022-07-25T06:37:59.169Z,93775.31
2022-07-25T06:38:55.849Z,93771.84
2022-07-25T06:39:52.912Z,93780.16
2022-07-25T06:40:49.804Z,93771.53
2022-07-25T06:41:46.446Z,93775.59
2022-07-25T06:42:45.237Z,93775.38
2022-07-25T06:43:42.780Z,93771.31
2022-07-25T06:44:39.441Z,93746.56
2022-07-25T06:45:36.067Z,93759.72
2022-07-25T06:46:33.126Z,93769.41
2022-07-25T06:47:35.533Z,93754.03
2022-07-25T06:48:32.574Z,93753.22
2022-07-25T06:49:29.484Z,93754.69
2022-07-25T06:50:26.211Z,93765.34
2022-07-25T06:51:24.219Z,93769.53
2022-07-25T06:52:20.879Z,93766.69
2022-07-25T06:53:18.250Z,93766.44
2022-07-25T06:54:15.706Z,93753.44
2022-07-25T06:55:14.093Z,93761.69
2022-07-25T06:56:15.752Z,93764.75
2022-07-25T06:57:14.175Z,93761.94
2022-07-25T06:58:10.845Z,93759.91
2022-07-25T06:59:07.457Z,93758.22
2022-07-25T07:00:09.865Z,93757.91
2022-07-25T07:01:07.117Z,93758.22
2022-07-25T07:02:03.869Z,93759.16
2022-07-25T07:03:02.440Z,93759.94
2022-07-25T07:03:59.138Z,93766.88
2022-07-25T07:04:55.751Z,93754.56
2022-07-25T07:05:52.460Z,93760.31
2022-07-25T07:06:49.126Z,93771.81
2022-07-25T07:07:47.793Z,93756.88
2022-07-25T07:08:44.805Z,93765.66
2022-07-25T07:09:44.042Z,93758.09
2022-07-25T07:10:40.751Z,93753.97
2022-07-25T07:11:37.635Z,93743.38
2022-07-25T07:12:34.294Z,93752.72
2022-07-25T07:13:32.359Z,93753.44
2022-07-25T07:14:29.087Z,93750.94
2022-07-25T07:15:25.857Z,93755.50
2022-07-25T07:16:22.553Z,93749.66
2022-07-25T07:17:19.201Z,93752.09
2022-07-25T07:18:17.241Z,93744.34
2022-07-25T07:19:14.691Z,93759.44
2022-07-25T07:20:11.916Z,93745.09
2022-07-25T07:21:08.683Z,93747.16
2022-07-25T07:22:13.536Z,93742.63
2022-07-25T07:23:10.577Z,93749.91
2022-07-25T07:24:18.512Z,93743.31
2022-07-25T07:25:21.367Z,93752.00
2022-07-25T07:26:18.407Z,93727.34
2022-07-25T07:27:15.327Z,93750.59
2022-07-25T07:28:16.864Z,93740.81
2022-07-25T07:29:13.631Z,93745.59
2022-07-25T07:30:11.214Z,93719.25
2022-07-25T07:31:16.774Z,93739.13
2022-07-25T07:32:14.040Z,93746.00
2022-07-25T07:33:10.726Z,93742.22
2022-07-25T07:34:07.506Z,93741.28
2022-07-25T07:35:04.387Z,93718.53
2022-07-25T07:36:02.204Z,93745.84
2022-07-25T07:36:59.001Z,93711.44
2022-07-25T07:37:55.978Z,93755.00
2022-07-25T07:38:53.096Z,93750.56
2022-07-25T07:39:50.251Z,93724.16
2022-07-25T07:40:46.929Z,93748.13
2022-07-25T07:41:44.195Z,93744.94
2022-07-25T07:42:46.969Z,93741.59
2022-07-25T07:43:43.648Z,93738.06
2022-07-25T07:44:40.241Z,93735.53
2022-07-25T07:45:36.976Z,93742.13
2022-07-25T07:46:33.860Z,93740.91
2022-07-25T07:47:30.573Z,93735.69
2022-07-25T07:48:33.806Z,93738.72
2022-07-25T07:49:30.627Z,93734.84
2022-07-25T07:50:34.151Z,93741.50
2022-07-25T07:51:30.827Z,93748.66
2022-07-25T07:52:27.411Z,93755.47
2022-07-25T07:53:43.985Z,93736.84
2022-07-25T07:54:59.605Z,93743.75
2022-07-25T07:55:56.264Z,93742.34
2022-07-25T07:56:52.935Z,93736.66
2022-07-25T07:57:49.897Z,93741.06
2022-07-25T07:58:46.717Z,93736.28
2022-07-25T07:59:43.339Z,93746.41
2022-07-25T08:00:40.138Z,93743.19
2022-07-25T08:01:36.815Z,93739.00
2022-07-25T08:02:41.833Z,93746.97
2022-07-25T08:03:38.525Z,93746.47
2022-07-25T08:04:35.186Z,93717.59
2022-07-25T08:05:34.891Z,93742.53
2022-07-25T08:06:31.664Z,93739.44
2022-07-25T08:07:28.275Z,93747.03
2022-07-25T08:08:30.888Z,93732.41
2022-07-25T08:09:28.180Z,93732.44
2022-07-25T08:10:27.625Z,93728.84
2022-07-25T08:11:24.282Z,93730.31
2022-07-25T08:12:20.915Z,93728.66
2022-07-25T08:13:19.057Z,93729.75
2022-07-25T08:14:15.819Z,93731.69
2022-07-25T08:15:12.536Z,93734.13
2022-07-25T08:16:11.907Z,93728.88
2022-07-25T08:17:08.616Z,93726.72
2022-07-25T08:18:17.793Z,93723.69
2022-07-25T08:19:14.892Z,93733.03
2022-07-25T08:20:36.411Z,93709.34
2022-07-25T08:21:28.897Z,93720.91
2022-07-25T08:22:35.028Z,93710.66
2022-07-25T08:23:35.589Z,93693.91
2022-07-25T08:24:32.395Z,93702.97
2022-07-25T08:25:29.253Z,93697.19
2022-07-25T08:26:27.935Z,93709.31
2022-07-25T08:27:24.669Z,93721.59
2022-07-25T08:28:21.505Z,93713.78
2022-07-25T08:29:20.573Z,93735.69
2022-07-25T08:30:19.404Z,93729.47
2022-07-25T08:31:16.164Z,93725.31
2022-07-25T08:32:12.810Z,93728.94
2022-07-25T08:33:13.447Z,93729.19
2022-07-25T08:34:10.396Z,93741.25
2022-07-25T08:35:11.401Z,93733.84
2022-07-25T08:36:10.918Z,93733.09
2022-07-25T08:37:07.569Z,93735.81
2022-07-25T08:38:05.004Z,93724.78
2022-07-25T08:39:01.708Z,93697.19
2022-07-25T08:39:58.301Z,93727.97
2022-07-25T08:40:56.561Z,93739.38
2022-07-25T08:41:53.607Z,93735.56
2022-07-25T08:42:50.795Z,93709.88
2022-07-25T08:43:49.588Z,93725.31
2022-07-25T08:44:59.852Z,93735.25
2022-07-25T08:45:57.613Z,93726.19
2022-07-25T08:46:54.942Z,93730.03
2022-07-25T08:47:54.579Z,93723.13
2022-07-25T08:48:52.304Z,93730.06
2022-07-25T08:49:49.427Z,93713.38
2022-07-25T08:50:47.177Z,93714.19
2022-07-25T08:51:44.122Z,93736.91
2022-07-25T08:52:47.651Z,93739.63
2022-07-25T08:53:48.629Z,93728.66
2022-07-25T08:54:47.834Z,93715.53
2022-07-25T08:55:45.869Z,93725.97
2022-07-25T08:56:42.597Z,93724.84
2022-07-25T08:57:41.511Z,93729.66
2022-07-25T08:58:38.145Z,93712.13
2022-07-25T08:59:34.769Z,93727.00
2022-07-25T09:00:31.841Z,93731.97
2022-07-25T09:01:34.584Z,93712.63
2022-07-25T09:02:31.890Z,93724.25
2022-07-25T09:03:28.772Z,93722.78
2022-07-25T09:04:26.320Z,93694.19
2022-07-25T09:05:24.387Z,93720.66
2022-07-25T09:06:22.402Z,93700.84
2022-07-25T09:07:33.723Z,93686.75
2022-07-25T09:08:30.361Z,93723.97
2022-07-25T09:09:38.492Z,93724.78
2022-07-25T09:10:36.162Z,93712.56
2022-07-25T09:11:35.193Z,93714.78
2022-07-25T09:12:31.814Z,93697.53
2022-07-25T09:13:29.682Z,93713.19
2022-07-25T09:14:26.952Z,93718.38
2022-07-25T09:15:32.960Z,93706.88
2022-07-25T09:16:34.874Z,93719.19
2022-07-25T09:17:31.509Z,93727.69
2022-07-25T09:18:28.383Z,93706.59
2022-07-25T09:19:26.199Z,93712.56
2022-07-25T09:20:23.438Z,93699.44
2022-07-25T09:21:20.092Z,93703.84
2022-07-25T09:22:16.803Z,93702.66
2022-07-25T09:23:30.696Z,93699.97
2022-07-25T09:24:28.579Z,93695.03
2022-07-25T09:25:28.479Z,93693.94
2022-07-25T09:26:25.622Z,93687.03
2022-07-25T09:27:22.392Z,93698.53
2022-07-25T09:28:19.814Z,93701.41
2022-07-25T09:29:29.438Z,93714.22
2022-07-25T09:30:26.083Z,93677.38
2022-07-25T09:31:32.725Z,93699.34
2022-07-25T09:32:29.514Z,93705.09
2022-07-25T09:33:27.758Z,93703.50
2022-07-25T09:34:34.580Z,93696.66
2022-07-25T09:35:34.410Z,93698.00
2022-07-25T09:36:31.354Z,93696.34
2022-07-25T09:37:28.067Z,93696.56
2022-07-25T09:38:25.483Z,93675.09
2022-07-25T09:39:33.282Z,93707.19
2022-07-25T09:40:29.956Z,93708.00
2022-07-25T09:41:41.002Z,93702.19
2022-07-25T09:42:37.677Z,93703.69
2022-07-25T09:43:44.610Z,93698.88
2022-07-25T09:44:41.605Z,93698.75
2022-07-25T09:45:49.146Z,93703.50
2022-07-25T09:46:46.060Z,93699.72
2022-07-25T09:47:56.843Z,93721.09
2022-07-25T09:48:58.259Z,93709.28
2022-07-25T09:49:55.520Z,93708.81
2022-07-25T09:50:52.482Z,93709.09
2022-07-25T09:51:49.555Z,93702.72
2022-07-25T09:52:46.617Z,93676.28
2022-07-25T09:53:43.340Z,93709.34
2022-07-25T09:54:40.732Z,93700.69
2022-07-25T09:55:37.419Z,93687.59
2022-07-25T09:56:35.817Z,93701.16
2022-07-25T09:57:32.470Z,93702.91
2022-07-25T09:58:29.775Z,93700.34
2022-07-25T09:59:26.638Z,93693.34
2022-07-25T10:00:26.602Z,93692.81
2022-07-25T10:01:34.298Z,93701.09
2022-07-25T10:02:49.630Z,93705.16
2022-07-25T10:03:53.795Z,93699.97
2022-07-25T10:05:09.098Z,93692.81
2022-07-25T10:06:11.975Z,93698.75
2022-07-25T10:07:10.577Z,93695.31
2022-07-25T10:08:08.757Z,93695.56
2022-07-25T10:09:12.346Z,93694.66
2022-07-25T10:10:09.215Z,93695.31
2022-07-25T10:11:17.859Z,93699.56
2022-07-25T10:12:19.276Z,93700.50
2022-07-25T10:13:18.196Z,93699.28
2022-07-25T10:14:14.863Z,93688.75
2022-07-25T10:15:13.837Z,93689.66
2022-07-25T10:16:18.884Z,93664.13
2022-07-25T10:17:21.677Z,93687.59
2022-07-25T10:18:21.315Z,93694.88
2022-07-25T10:19:36.164Z,93683.88
2022-07-25T10:20:32.859Z,93690.63
2022-07-25T10:21:29.819Z,93691.28
2022-07-25T10:22:57.265Z,93670.47
2022-07-25T10:24:08.438Z,93690.75
2022-07-25T10:25:17.465Z,93681.22
2022-07-25T10:26:19.682Z,93684.53
2022-07-25T10:27:23.087Z,93673.53
2022-07-25T10:28:20.773Z,93683.00
2022-07-25T10:29:17.484Z,93680.66
2022-07-25T10:30:21.452Z,93675.59
2022-07-25T10:31:33.905Z,93678.09
2022-07-25T10:32:35.319Z,93676.94
2022-07-25T10:33:42.040Z,93679.56
2022-07-25T10:34:39.957Z,93668.03
2022-07-25T10:35:36.828Z,93677.56
2022-07-25T10:36:48.850Z,93687.31
2022-07-25T10:37:49.150Z,93685.03
2022-07-25T10:38:46.634Z,93673.91
2022-07-25T10:39:45.137Z,93681.47
2022-07-25T10:40:44.230Z,93657.78
2022-07-25T10:41:43.234Z,93677.53
2022-07-25T10:42:45.869Z,93675.28
2022-07-25T10:43:48.701Z,93676.47
2022-07-25T10:44:48.708Z,93665.66
2022-07-25T10:45:48.502Z,93668.47
2022-07-25T10:46:45.490Z,93658.97
2022-07-25T10:47:54.041Z,93659.28
2022-07-25T10:49:07.608Z,93641.66
2022-07-25T10:50:21.887Z,93674.91
2022-07-25T10:51:27.298Z,93658.03
2022-07-25T10:52:28.550Z,93665.09
2022-07-25T10:53:34.112Z,93667.91
2022-07-25T10:54:38.934Z,93677.34
2022-07-25T10:55:36.766Z,93640.06
2022-07-25T10:56:36.864Z,93679.88
2022-07-25T10:57:34.477Z,93663.56
2022-07-25T10:58:52.120Z,93658.84
2022-07-25T10:59:49.074Z,93668.06
2022-07-25T11:00:45.669Z,93676.97
2022-07-25T11:01:44.894Z,93677.72
2022-07-25T11:02:42.695Z,93656.91
2022-07-25T11:03:41.578Z,93672.25
2022-07-25T11:04:38.198Z,93661.31
2022-07-25T11:05:44.711Z,93665.50
2022-07-25T11:06:43.192Z,93660.22
2022-07-25T11:08:18.993Z,93624.53
2022-07-25T11:09:26.475Z,93645.69
2022-07-25T11:10:28.195Z,93648.00
2022-07-25T11:11:39.833Z,93651.22
2022-07-25T11:12:37.487Z,93647.38
2022-07-25T11:13:39.318Z,93651.91
2022-07-25T11:14:41.370Z,93666.75
2022-07-25T11:15:38.574Z,93641.94
2022-07-25T11:16:35.338Z,93644.91
2022-07-25T11:17:32.551Z,93649.41
2022-07-25T11:18:33.374Z,93649.09
2022-07-25T11:19:30.020Z,93659.53
2022-07-25T11:20:27.572Z,93631.91
2022-07-25T11:21:24.457Z,93646.31
2022-07-25T11:22:21.439Z,93619.34
2022-07-25T11:23:22.013Z,93632.53
2022-07-25T11:24:18.832Z,93635.44
2022-07-25T11:25:15.623Z,93621.69